sensor_id;sensor_type;location;lat;lon;timestamp;P1;durP1;ratioP1;P2;durP2;ratioP2
6424;SDS011;12193;42.642;23.384;2023-04-22T00:00:41;12.20;;;7.23;;
6424;SDS011;12193;42.642;23.384;2023-04-22T00:03:10;13.23;;;7.17;;
6424;SDS011;12193;42.642;23.384;2023-04-22T00:05:39;12.07;;;7.07;;
6424;SDS011;12193;42.642;23.384;2023-04-22T02:58:42;9.30;;;5.40;;
6424;SDS011;12193;42.642;23.384;2023-04-22T03:01:11;15.00;;;6.47;;
6424;SDS011;12193;42.642;23.384;2023-04-22T03:03:41;9.90;;;6.33;;
6424;SDS011;12193;42.642;23.384;2023-04-22T03:06:10;12.57;;;7.47;;
6424;SDS011;12193;42.642;23.384;2023-04-22T03:08:40;10.57;;;6.43;;
6424;SDS011;12193;42.642;23.384;2023-04-22T03:11:09;11.57;;;6.87;;
6424;SDS011;12193;42.642;23.384;2023-04-22T03:13:38;9.03;;;6.53;;
6424;SDS011;12193;42.642;23.384;2023-04-22T03:16:11;13.60;;;7.50;;
6424;SDS011;12193;42.642;23.384;2023-04-22T03:18:40;9.97;;;6.87;;
6424;SDS011;12193;42.642;23.384;2023-04-22T03:21:09;10.47;;;6.93;;
6424;SDS011;12193;42.642;23.384;2023-04-22T03:23:39;9.47;;;6.10;;
6424;SDS011;12193;42.642;23.384;2023-04-22T03:26:08;13.00;;;6.03;;
6424;SDS011;12193;42.642;23.384;2023-04-22T03:28:38;9.97;;;6.27;;
6424;SDS011;12193;42.642;23.384;2023-04-22T03:31:10;10.33;;;6.53;;
6424;SDS011;12193;42.642;23.384;2023-04-22T03:33:40;11.43;;;6.57;;
6424;SDS011;12193;42.642;23.384;2023-04-22T03:36:09;9.53;;;7.00;;
6424;SDS011;12193;42.642;23.384;2023-04-22T03:38:38;9.73;;;6.60;;
6424;SDS011;12193;42.642;23.384;2023-04-22T03:41:08;9.90;;;6.73;;
6424;SDS011;12193;42.642;23.384;2023-04-22T03:43:37;10.27;;;6.43;;
6424;SDS011;12193;42.642;23.384;2023-04-22T03:46:06;7.57;;;5.60;;
6424;SDS011;12193;42.642;23.384;2023-04-22T03:48:39;9.93;;;6.47;;
6424;SDS011;12193;42.642;23.384;2023-04-22T03:51:08;8.57;;;5.67;;
6424;SDS011;12193;42.642;23.384;2023-04-22T03:53:37;10.90;;;6.50;;
6424;SDS011;12193;42.642;23.384;2023-04-22T03:56:07;10.17;;;7.00;;
6424;SDS011;12193;42.642;23.384;2023-04-22T03:58:36;15.23;;;6.90;;
6424;SDS011;12193;42.642;23.384;2023-04-22T04:01:05;10.47;;;6.67;;
6424;SDS011;12193;42.642;23.384;2023-04-22T04:03:37;10.27;;;6.90;;
6424;SDS011;12193;42.642;23.384;2023-04-22T04:06:07;9.80;;;7.10;;
6424;SDS011;12193;42.642;23.384;2023-04-22T04:08:36;11.80;;;5.90;;
6424;SDS011;12193;42.642;23.384;2023-04-22T04:11:06;10.57;;;6.30;;
6424;SDS011;12193;42.642;23.384;2023-04-22T04:13:37;12.33;;;6.73;;
6424;SDS011;12193;42.642;23.384;2023-04-22T04:16:06;10.87;;;6.57;;
6424;SDS011;12193;42.642;23.384;2023-04-22T04:18:38;10.17;;;6.57;;
6424;SDS011;12193;42.642;23.384;2023-04-22T04:21:08;8.77;;;6.47;;
6424;SDS011;12193;42.642;23.384;2023-04-22T04:23:37;10.03;;;6.50;;
6424;SDS011;12193;42.642;23.384;2023-04-22T04:26:06;9.10;;;5.77;;
6424;SDS011;12193;42.642;23.384;2023-04-22T04:28:36;10.53;;;6.40;;
6424;SDS011;12193;42.642;23.384;2023-04-22T04:31:06;11.93;;;6.93;;
6424;SDS011;12193;42.642;23.384;2023-04-22T04:33:38;9.83;;;6.60;;
6424;SDS011;12193;42.642;23.384;2023-04-22T04:36:08;10.53;;;6.50;;
6424;SDS011;12193;42.642;23.384;2023-04-22T04:38:38;11.67;;;6.90;;
6424;SDS011;12193;42.642;23.384;2023-04-22T04:41:07;10.83;;;6.87;;
6424;SDS011;12193;42.642;23.384;2023-04-22T04:43:36;9.10;;;6.20;;
6424;SDS011;12193;42.642;23.384;2023-04-22T04:46:05;9.23;;;6.67;;
6424;SDS011;12193;42.642;23.384;2023-04-22T04:48:38;12.03;;;6.40;;
6424;SDS011;12193;42.642;23.384;2023-04-22T04:51:09;11.40;;;7.00;;
6424;SDS011;12193;42.642;23.384;2023-04-22T04:53:40;12.27;;;7.53;;
6424;SDS011;12193;42.642;23.384;2023-04-22T04:56:09;11.40;;;6.90;;
6424;SDS011;12193;42.642;23.384;2023-04-22T04:58:38;10.77;;;7.43;;
6424;SDS011;12193;42.642;23.384;2023-04-22T05:01:08;12.93;;;7.47;;
6424;SDS011;12193;42.642;23.384;2023-04-22T05:03:39;11.73;;;7.20;;
6424;SDS011;12193;42.642;23.384;2023-04-22T05:06:09;10.43;;;7.27;;
6424;SDS011;12193;42.642;23.384;2023-04-22T05:08:38;10.87;;;6.20;;
6424;SDS011;12193;42.642;23.384;2023-04-22T05:11:08;10.40;;;6.80;;
6424;SDS011;12193;42.642;23.384;2023-04-22T05:13:37;11.50;;;7.37;;
6424;SDS011;12193;42.642;23.384;2023-04-22T05:16:06;12.93;;;7.00;;
6424;SDS011;12193;42.642;23.384;2023-04-22T05:18:39;11.57;;;6.70;;
6424;SDS011;12193;42.642;23.384;2023-04-22T05:21:08;9.90;;;7.30;;
6424;SDS011;12193;42.642;23.384;2023-04-22T05:23:38;12.53;;;7.63;;
6424;SDS011;12193;42.642;23.384;2023-04-22T05:26:07;12.70;;;8.10;;
6424;SDS011;12193;42.642;23.384;2023-04-22T05:28:37;11.67;;;7.70;;
6424;SDS011;12193;42.642;23.384;2023-04-22T05:31:06;10.73;;;7.43;;
6424;SDS011;12193;42.642;23.384;2023-04-22T05:33:35;12.43;;;7.63;;
6424;SDS011;12193;42.642;23.384;2023-04-22T05:36:07;10.77;;;7.17;;
6424;SDS011;12193;42.642;23.384;2023-04-22T05:38:37;13.17;;;7.83;;
6424;SDS011;12193;42.642;23.384;2023-04-22T05:41:06;10.70;;;8.00;;
6424;SDS011;12193;42.642;23.384;2023-04-22T05:43:35;9.43;;;7.10;;
6424;SDS011;12193;42.642;23.384;2023-04-22T05:46:05;9.83;;;7.43;;
6424;SDS011;12193;42.642;23.384;2023-04-22T05:48:34;11.73;;;7.07;;
6424;SDS011;12193;42.642;23.384;2023-04-22T05:51:03;14.17;;;7.47;;
6424;SDS011;12193;42.642;23.384;2023-04-22T05:53:36;11.50;;;8.30;;
6424;SDS011;12193;42.642;23.384;2023-04-22T05:56:06;12.10;;;7.67;;
6424;SDS011;12193;42.642;23.384;2023-04-22T05:58:35;12.50;;;8.30;;
6424;SDS011;12193;42.642;23.384;2023-04-22T06:01:04;11.80;;;8.23;;
6424;SDS011;12193;42.642;23.384;2023-04-22T06:03:34;14.57;;;8.73;;
6424;SDS011;12193;42.642;23.384;2023-04-22T06:06:03;12.57;;;7.93;;
6424;SDS011;12193;42.642;23.384;2023-04-22T06:08:36;13.33;;;8.60;;
6424;SDS011;12193;42.642;23.384;2023-04-22T06:11:05;13.17;;;8.43;;
6424;SDS011;12193;42.642;23.384;2023-04-22T06:13:34;11.87;;;8.40;;
6424;SDS011;12193;42.642;23.384;2023-04-22T06:16:04;13.83;;;8.73;;
6424;SDS011;12193;42.642;23.384;2023-04-22T06:18:34;12.83;;;9.03;;
6424;SDS011;12193;42.642;23.384;2023-04-22T06:21:04;12.17;;;8.97;;
6424;SDS011;12193;42.642;23.384;2023-04-22T06:23:35;16.20;;;9.73;;
6424;SDS011;12193;42.642;23.384;2023-04-22T06:26:05;15.23;;;9.27;;
6424;SDS011;12193;42.642;23.384;2023-04-22T06:28:34;14.23;;;9.07;;
6424;SDS011;12193;42.642;23.384;2023-04-22T06:31:04;14.30;;;9.50;;
6424;SDS011;12193;42.642;23.384;2023-04-22T06:33:33;16.73;;;10.00;;
6424;SDS011;12193;42.642;23.384;2023-04-22T06:36:03;14.83;;;9.53;;
6424;SDS011;12193;42.642;23.384;2023-04-22T06:38:36;11.30;;;7.83;;
6424;SDS011;12193;42.642;23.384;2023-04-22T06:41:05;13.53;;;7.53;;
6424;SDS011;12193;42.642;23.384;2023-04-22T06:43:35;14.43;;;8.73;;
6424;SDS011;12193;42.642;23.384;2023-04-22T06:46:04;14.23;;;8.37;;
6424;SDS011;12193;42.642;23.384;2023-04-22T06:48:33;11.60;;;7.50;;
6424;SDS011;12193;42.642;23.384;2023-04-22T06:51:03;10.23;;;7.40;;
6424;SDS011;12193;42.642;23.384;2023-04-22T06:53:32;13.37;;;7.27;;
6424;SDS011;12193;42.642;23.384;2023-04-22T06:56:04;10.40;;;7.43;;
6424;SDS011;12193;42.642;23.384;2023-04-22T06:58:34;10.23;;;7.10;;
6424;SDS011;12193;42.642;23.384;2023-04-22T07:01:03;12.77;;;7.27;;
6424;SDS011;12193;42.642;23.384;2023-04-22T07:03:32;13.60;;;7.33;;
6424;SDS011;12193;42.642;23.384;2023-04-22T07:06:02;8.70;;;6.53;;
6424;SDS011;12193;42.642;23.384;2023-04-22T07:08:32;11.87;;;6.77;;
6424;SDS011;12193;42.642;23.384;2023-04-22T07:11:04;10.03;;;6.70;;
6424;SDS011;12193;42.642;23.384;2023-04-22T07:13:33;9.07;;;6.40;;
6424;SDS011;12193;42.642;23.384;2023-04-22T07:16:03;8.00;;;6.40;;
6424;SDS011;12193;42.642;23.384;2023-04-22T07:18:32;9.67;;;6.57;;
6424;SDS011;12193;42.642;23.384;2023-04-22T07:21:05;11.53;;;6.63;;
6424;SDS011;12193;42.642;23.384;2023-04-22T07:23:34;11.93;;;8.23;;
6424;SDS011;12193;42.642;23.384;2023-04-22T07:26:06;9.73;;;6.40;;
6424;SDS011;12193;42.642;23.384;2023-04-22T07:28:35;7.90;;;6.20;;
6424;SDS011;12193;42.642;23.384;2023-04-22T07:31:05;8.43;;;6.10;;
6424;SDS011;12193;42.642;23.384;2023-04-22T07:33:34;7.67;;;6.50;;
6424;SDS011;12193;42.642;23.384;2023-04-22T07:36:04;12.33;;;6.20;;
6424;SDS011;12193;42.642;23.384;2023-04-22T07:38:33;14.83;;;6.60;;
6424;SDS011;12193;42.642;23.384;2023-04-22T07:41:03;13.83;;;6.23;;
6424;SDS011;12193;42.642;23.384;2023-04-22T07:43:35;10.97;;;6.53;;
6424;SDS011;12193;42.642;23.384;2023-04-22T07:46:04;12.90;;;6.63;;
6424;SDS011;12193;42.642;23.384;2023-04-22T07:48:33;9.30;;;6.80;;
6424;SDS011;12193;42.642;23.384;2023-04-22T07:51:03;11.83;;;6.53;;
6424;SDS011;12193;42.642;23.384;2023-04-22T07:53:32;7.47;;;6.17;;
6424;SDS011;12193;42.642;23.384;2023-04-22T07:56:02;10.00;;;5.93;;
6424;SDS011;12193;42.642;23.384;2023-04-22T07:58:34;12.53;;;6.63;;
6424;SDS011;12193;42.642;23.384;2023-04-22T08:01:04;7.10;;;5.20;;
6424;SDS011;12193;42.642;23.384;2023-04-22T08:03:33;7.13;;;5.30;;
6424;SDS011;12193;42.642;23.384;2023-04-22T08:06:02;11.43;;;5.83;;
6424;SDS011;12193;42.642;23.384;2023-04-22T08:08:32;8.83;;;5.30;;
6424;SDS011;12193;42.642;23.384;2023-04-22T08:11:02;11.90;;;5.73;;
6424;SDS011;12193;42.642;23.384;2023-04-22T08:13:34;10.60;;;5.53;;
6424;SDS011;12193;42.642;23.384;2023-04-22T08:16:03;8.37;;;5.67;;
6424;SDS011;12193;42.642;23.384;2023-04-22T08:18:34;8.97;;;6.20;;
6424;SDS011;12193;42.642;23.384;2023-04-22T08:21:03;11.23;;;6.40;;
6424;SDS011;12193;42.642;23.384;2023-04-22T08:23:33;10.53;;;6.00;;
6424;SDS011;12193;42.642;23.384;2023-04-22T08:26:02;11.93;;;6.60;;
6424;SDS011;12193;42.642;23.384;2023-04-22T08:28:35;10.10;;;6.40;;
6424;SDS011;12193;42.642;23.384;2023-04-22T08:31:05;8.57;;;5.80;;
6424;SDS011;12193;42.642;23.384;2023-04-22T08:33:37;8.03;;;6.20;;
6424;SDS011;12193;42.642;23.384;2023-04-22T08:36:07;10.53;;;5.83;;
6424;SDS011;12193;42.642;23.384;2023-04-22T08:38:36;11.30;;;6.20;;
6424;SDS011;12193;42.642;23.384;2023-04-22T08:41:06;15.50;;;6.30;;
6424;SDS011;12193;42.642;23.384;2023-04-22T08:43:38;13.63;;;6.80;;
6424;SDS011;12193;42.642;23.384;2023-04-22T08:46:09;9.33;;;6.77;;
6424;SDS011;12193;42.642;23.384;2023-04-22T08:48:40;8.93;;;6.97;;
6424;SDS011;12193;42.642;23.384;2023-04-22T08:51:09;11.70;;;7.30;;
6424;SDS011;12193;42.642;23.384;2023-04-22T08:53:39;12.87;;;7.60;;
6424;SDS011;12193;42.642;23.384;2023-04-22T08:56:08;11.43;;;7.30;;
6424;SDS011;12193;42.642;23.384;2023-04-22T08:58:42;11.43;;;7.00;;
6424;SDS011;12193;42.642;23.384;2023-04-22T09:01:12;14.13;;;6.07;;
6424;SDS011;12193;42.642;23.384;2023-04-22T09:03:42;10.90;;;5.93;;
6424;SDS011;12193;42.642;23.384;2023-04-22T09:06:12;12.67;;;6.80;;
6424;SDS011;12193;42.642;23.384;2023-04-22T09:08:41;13.67;;;7.33;;
6424;SDS011;12193;42.642;23.384;2023-04-22T09:11:11;13.77;;;7.23;;
6424;SDS011;12193;42.642;23.384;2023-04-22T09:13:43;11.27;;;6.93;;
6424;SDS011;12193;42.642;23.384;2023-04-22T09:16:12;10.40;;;6.87;;
6424;SDS011;12193;42.642;23.384;2023-04-22T09:18:42;15.07;;;7.40;;
6424;SDS011;12193;42.642;23.384;2023-04-22T09:21:12;11.47;;;7.07;;
6424;SDS011;12193;42.642;23.384;2023-04-22T09:23:43;12.13;;;7.10;;
6424;SDS011;12193;42.642;23.384;2023-04-22T09:26:13;8.30;;;5.53;;
6424;SDS011;12193;42.642;23.384;2023-04-22T09:28:53;7.10;;;5.53;;
6424;SDS011;12193;42.642;23.384;2023-04-22T09:31:23;13.80;;;5.57;;
6424;SDS011;12193;42.642;23.384;2023-04-22T09:33:54;8.77;;;5.20;;
6424;SDS011;12193;42.642;23.384;2023-04-22T09:36:25;7.43;;;4.80;;
6424;SDS011;12193;42.642;23.384;2023-04-22T09:38:56;7.90;;;5.37;;
6424;SDS011;12193;42.642;23.384;2023-04-22T09:41:26;10.70;;;5.13;;
6424;SDS011;12193;42.642;23.384;2023-04-22T09:43:59;7.43;;;4.90;;
6424;SDS011;12193;42.642;23.384;2023-04-22T09:46:30;7.30;;;5.20;;
6424;SDS011;12193;42.642;23.384;2023-04-22T09:49:00;10.60;;;5.10;;
6424;SDS011;12193;42.642;23.384;2023-04-22T09:51:30;10.03;;;4.73;;
6424;SDS011;12193;42.642;23.384;2023-04-22T09:53:59;10.40;;;5.33;;
6424;SDS011;12193;42.642;23.384;2023-04-22T09:56:40;10.67;;;5.30;;
6424;SDS011;12193;42.642;23.384;2023-04-22T09:59:22;7.87;;;4.93;;
6424;SDS011;12193;42.642;23.384;2023-04-22T10:01:54;6.83;;;4.77;;
6424;SDS011;12193;42.642;23.384;2023-04-22T10:04:25;7.47;;;5.00;;
6424;SDS011;12193;42.642;23.384;2023-04-22T10:06:55;10.10;;;3.53;;
6424;SDS011;12193;42.642;23.384;2023-04-22T10:09:27;6.03;;;3.10;;
6424;SDS011;12193;42.642;23.384;2023-04-22T10:11:57;4.93;;;2.70;;
6424;SDS011;12193;42.642;23.384;2023-04-22T10:14:29;13.50;;;2.93;;
6424;SDS011;12193;42.642;23.384;2023-04-22T10:16:59;5.37;;;2.60;;
6424;SDS011;12193;42.642;23.384;2023-04-22T10:19:30;4.33;;;2.53;;
6424;SDS011;12193;42.642;23.384;2023-04-22T10:22:02;3.73;;;2.30;;
6424;SDS011;12193;42.642;23.384;2023-04-22T10:24:33;6.03;;;3.07;;
6424;SDS011;12193;42.642;23.384;2023-04-22T10:27:04;3.60;;;2.40;;
6424;SDS011;12193;42.642;23.384;2023-04-22T10:29:39;4.77;;;2.13;;
6424;SDS011;12193;42.642;23.384;2023-04-22T10:32:22;2.50;;;2.00;;
6424;SDS011;12193;42.642;23.384;2023-04-22T10:35:06;3.73;;;2.00;;
6424;SDS011;12193;42.642;23.384;2023-04-22T10:37:41;4.73;;;2.33;;
6424;SDS011;12193;42.642;23.384;2023-04-22T10:40:14;4.70;;;2.30;;
6424;SDS011;12193;42.642;23.384;2023-04-22T10:42:46;3.03;;;2.30;;
6424;SDS011;12193;42.642;23.384;2023-04-22T10:45:22;3.87;;;2.50;;
6424;SDS011;12193;42.642;23.384;2023-04-22T10:47:52;3.90;;;2.50;;
6424;SDS011;12193;42.642;23.384;2023-04-22T10:50:22;3.17;;;2.20;;
6424;SDS011;12193;42.642;23.384;2023-04-22T10:52:54;6.10;;;2.50;;
6424;SDS011;12193;42.642;23.384;2023-04-22T10:55:25;2.63;;;2.23;;
6424;SDS011;12193;42.642;23.384;2023-04-22T10:58:17;3.93;;;2.80;;
6424;SDS011;12193;42.642;23.384;2023-04-22T11:00:50;4.03;;;2.37;;
6424;SDS011;12193;42.642;23.384;2023-04-22T11:03:25;4.00;;;2.30;;
6424;SDS011;12193;42.642;23.384;2023-04-22T11:08:43;5.23;;;2.30;;
6424;SDS011;12193;42.642;23.384;2023-04-22T11:11:14;3.03;;;2.10;;
6424;SDS011;12193;42.642;23.384;2023-04-22T11:13:46;5.53;;;2.30;;
6424;SDS011;12193;42.642;23.384;2023-04-22T11:16:22;7.63;;;2.30;;
6424;SDS011;12193;42.642;23.384;2023-04-22T11:18:52;5.43;;;2.33;;
6424;SDS011;12193;42.642;23.384;2023-04-22T11:21:23;2.17;;;1.97;;
6424;SDS011;12193;42.642;23.384;2023-04-22T11:23:53;2.90;;;1.90;;
6424;SDS011;12193;42.642;23.384;2023-04-22T11:26:34;4.07;;;2.00;;
6424;SDS011;12193;42.642;23.384;2023-04-22T11:29:05;3.47;;;2.07;;
6424;SDS011;12193;42.642;23.384;2023-04-22T11:31:39;5.93;;;2.10;;
6424;SDS011;12193;42.642;23.384;2023-04-22T11:34:14;3.47;;;2.33;;
6424;SDS011;12193;42.642;23.384;2023-04-22T11:36:43;2.87;;;2.17;;
6424;SDS011;12193;42.642;23.384;2023-04-22T11:39:13;2.47;;;2.00;;
6424;SDS011;12193;42.642;23.384;2023-04-22T11:41:43;4.53;;;2.10;;
6424;SDS011;12193;42.642;23.384;2023-04-22T11:44:13;5.00;;;2.00;;
6424;SDS011;12193;42.642;23.384;2023-04-22T11:46:45;2.33;;;1.57;;
6424;SDS011;12193;42.642;23.384;2023-04-22T11:49:15;4.20;;;1.87;;
6424;SDS011;12193;42.642;23.384;2023-04-22T11:51:51;4.20;;;2.10;;
6424;SDS011;12193;42.642;23.384;2023-04-22T11:54:28;2.63;;;2.17;;
6424;SDS011;12193;42.642;23.384;2023-04-22T11:57:00;4.20;;;2.17;;
6424;SDS011;12193;42.642;23.384;2023-04-22T11:59:30;2.40;;;2.10;;
6424;SDS011;12193;42.642;23.384;2023-04-22T12:02:02;5.00;;;2.10;;
6424;SDS011;12193;42.642;23.384;2023-04-22T12:04:34;2.30;;;1.90;;
6424;SDS011;12193;42.642;23.384;2023-04-22T12:07:05;4.50;;;2.37;;
6424;SDS011;12193;42.642;23.384;2023-04-22T12:09:34;4.93;;;2.60;;
6424;SDS011;12193;42.642;23.384;2023-04-22T12:12:03;2.47;;;2.27;;
6424;SDS011;12193;42.642;23.384;2023-04-22T12:14:33;4.40;;;2.40;;
6424;SDS011;12193;42.642;23.384;2023-04-22T12:17:07;3.80;;;2.40;;
6424;SDS011;12193;42.642;23.384;2023-04-22T12:19:37;3.27;;;2.20;;
6424;SDS011;12193;42.642;23.384;2023-04-22T12:22:06;3.63;;;2.60;;
6424;SDS011;12193;42.642;23.384;2023-04-22T12:24:35;3.17;;;2.40;;
6424;SDS011;12193;42.642;23.384;2023-04-22T12:27:04;5.07;;;2.70;;
6424;SDS011;12193;42.642;23.384;2023-04-22T12:29:34;4.47;;;2.40;;
6424;SDS011;12193;42.642;23.384;2023-04-22T12:32:06;3.07;;;2.37;;
6424;SDS011;12193;42.642;23.384;2023-04-22T12:34:35;4.90;;;2.60;;
6424;SDS011;12193;42.642;23.384;2023-04-22T12:37:04;5.17;;;3.03;;
6424;SDS011;12193;42.642;23.384;2023-04-22T12:39:34;5.23;;;2.60;;
6424;SDS011;12193;42.642;23.384;2023-04-22T12:42:03;5.17;;;2.73;;
6424;SDS011;12193;42.642;23.384;2023-04-22T12:44:33;4.80;;;3.00;;
6424;SDS011;12193;42.642;23.384;2023-04-22T12:47:02;5.60;;;3.13;;
6424;SDS011;12193;42.642;23.384;2023-04-22T12:49:35;4.17;;;2.97;;
6424;SDS011;12193;42.642;23.384;2023-04-22T12:52:05;6.30;;;3.10;;
6424;SDS011;12193;42.642;23.384;2023-04-22T12:54:34;6.07;;;3.30;;
6424;SDS011;12193;42.642;23.384;2023-04-22T12:57:04;6.27;;;3.60;;
6424;SDS011;12193;42.642;23.384;2023-04-22T12:59:33;5.67;;;3.10;;
6424;SDS011;12193;42.642;23.384;2023-04-22T13:02:02;4.07;;;3.20;;
6424;SDS011;12193;42.642;23.384;2023-04-22T13:04:35;12.97;;;3.10;;
6424;SDS011;12193;42.642;23.384;2023-04-22T13:07:04;5.00;;;3.00;;
6424;SDS011;12193;42.642;23.384;2023-04-22T13:09:33;7.17;;;3.83;;
6424;SDS011;12193;42.642;23.384;2023-04-22T13:12:03;3.10;;;2.80;;
6424;SDS011;12193;42.642;23.384;2023-04-22T13:14:32;4.50;;;2.93;;
6424;SDS011;12193;42.642;23.384;2023-04-22T13:17:02;4.83;;;3.17;;
6424;SDS011;12193;42.642;23.384;2023-04-22T13:19:34;5.77;;;3.00;;
6424;SDS011;12193;42.642;23.384;2023-04-22T13:22:03;4.07;;;2.73;;
6424;SDS011;12193;42.642;23.384;2023-04-22T13:24:33;4.50;;;3.30;;
6424;SDS011;12193;42.642;23.384;2023-04-22T13:27:02;4.17;;;2.80;;
6424;SDS011;12193;42.642;23.384;2023-04-22T13:29:32;4.63;;;2.50;;
6424;SDS011;12193;42.642;23.384;2023-04-22T13:32:02;5.87;;;2.50;;
6424;SDS011;12193;42.642;23.384;2023-04-22T13:34:35;3.70;;;2.77;;
6424;SDS011;12193;42.642;23.384;2023-04-22T13:37:06;4.23;;;2.43;;
6424;SDS011;12193;42.642;23.384;2023-04-22T13:39:35;4.83;;;2.50;;
6424;SDS011;12193;42.642;23.384;2023-04-22T13:42:04;4.93;;;2.50;;
6424;SDS011;12193;42.642;23.384;2023-04-22T13:44:34;6.37;;;2.70;;
6424;SDS011;12193;42.642;23.384;2023-04-22T13:47:03;4.93;;;2.57;;
6424;SDS011;12193;42.642;23.384;2023-04-22T13:49:35;4.07;;;2.30;;
6424;SDS011;12193;42.642;23.384;2023-04-22T13:52:05;5.03;;;2.60;;
6424;SDS011;12193;42.642;23.384;2023-04-22T13:54:34;4.37;;;2.50;;
6424;SDS011;12193;42.642;23.384;2023-04-22T13:57:03;3.80;;;2.37;;
6424;SDS011;12193;42.642;23.384;2023-04-22T13:59:33;3.83;;;2.40;;
6424;SDS011;12193;42.642;23.384;2023-04-22T14:02:03;2.37;;;2.17;;
6424;SDS011;12193;42.642;23.384;2023-04-22T14:04:35;3.53;;;2.30;;
6424;SDS011;12193;42.642;23.384;2023-04-22T14:07:05;4.43;;;2.50;;
6424;SDS011;12193;42.642;23.384;2023-04-22T14:09:34;4.87;;;2.43;;
6424;SDS011;12193;42.642;23.384;2023-04-22T14:12:05;5.13;;;2.93;;
6424;SDS011;12193;42.642;23.384;2023-04-22T14:14:35;4.47;;;2.57;;
6424;SDS011;12193;42.642;23.384;2023-04-22T14:17:05;5.23;;;2.20;;
6424;SDS011;12193;42.642;23.384;2023-04-22T14:19:37;2.93;;;2.50;;
6424;SDS011;12193;42.642;23.384;2023-04-22T14:22:09;4.23;;;2.73;;
6424;SDS011;12193;42.642;23.384;2023-04-22T14:24:39;4.70;;;2.37;;
6424;SDS011;12193;42.642;23.384;2023-04-22T14:27:08;4.03;;;2.53;;
6424;SDS011;12193;42.642;23.384;2023-04-22T14:29:37;2.70;;;2.37;;
6424;SDS011;12193;42.642;23.384;2023-04-22T14:32:07;4.03;;;2.77;;
6424;SDS011;12193;42.642;23.384;2023-04-22T14:34:39;3.97;;;2.40;;
6424;SDS011;12193;42.642;23.384;2023-04-22T14:37:09;4.70;;;2.27;;
6424;SDS011;12193;42.642;23.384;2023-04-22T14:39:38;4.80;;;2.40;;
6424;SDS011;12193;42.642;23.384;2023-04-22T14:42:08;4.23;;;2.60;;
6424;SDS011;12193;42.642;23.384;2023-04-22T14:44:37;4.00;;;2.43;;
6424;SDS011;12193;42.642;23.384;2023-04-22T14:47:06;3.47;;;2.73;;
6424;SDS011;12193;42.642;23.384;2023-04-22T14:49:36;3.07;;;2.50;;
6424;SDS011;12193;42.642;23.384;2023-04-22T14:52:08;4.10;;;2.60;;
6424;SDS011;12193;42.642;23.384;2023-04-22T14:54:37;4.13;;;2.60;;
6424;SDS011;12193;42.642;23.384;2023-04-22T14:57:07;3.70;;;2.87;;
6424;SDS011;12193;42.642;23.384;2023-04-22T14:59:37;4.63;;;2.70;;
6424;SDS011;12193;42.642;23.384;2023-04-22T15:02:07;3.43;;;2.60;;
6424;SDS011;12193;42.642;23.384;2023-04-22T15:04:44;4.50;;;2.70;;
6424;SDS011;12193;42.642;23.384;2023-04-22T15:07:13;5.67;;;2.70;;
6424;SDS011;12193;42.642;23.384;2023-04-22T15:09:43;5.30;;;4.00;;
6424;SDS011;12193;42.642;23.384;2023-04-22T15:12:12;4.73;;;2.70;;
6424;SDS011;12193;42.642;23.384;2023-04-22T15:14:42;6.00;;;2.87;;
6424;SDS011;12193;42.642;23.384;2023-04-22T15:17:11;4.73;;;2.80;;
6424;SDS011;12193;42.642;23.384;2023-04-22T15:19:40;4.90;;;2.60;;
6424;SDS011;12193;42.642;23.384;2023-04-22T15:22:13;4.33;;;3.00;;
6424;SDS011;12193;42.642;23.384;2023-04-22T15:24:42;4.33;;;2.90;;
6424;SDS011;12193;42.642;23.384;2023-04-22T15:27:12;4.17;;;2.93;;
6424;SDS011;12193;42.642;23.384;2023-04-22T15:29:41;5.03;;;3.00;;
6424;SDS011;12193;42.642;23.384;2023-04-22T15:32:12;5.40;;;3.50;;
6424;SDS011;12193;42.642;23.384;2023-04-22T15:34:41;6.00;;;2.83;;
6424;SDS011;12193;42.642;23.384;2023-04-22T15:37:13;3.30;;;2.90;;
6424;SDS011;12193;42.642;23.384;2023-04-22T15:39:43;8.60;;;3.07;;
6424;SDS011;12193;42.642;23.384;2023-04-22T15:42:12;6.73;;;3.10;;
6424;SDS011;12193;42.642;23.384;2023-04-22T15:44:41;3.83;;;3.10;;
6424;SDS011;12193;42.642;23.384;2023-04-22T15:47:10;3.87;;;2.83;;
6424;SDS011;12193;42.642;23.384;2023-04-22T15:49:40;3.97;;;3.07;;
6424;SDS011;12193;42.642;23.384;2023-04-22T15:52:09;3.53;;;2.80;;
6424;SDS011;12193;42.642;23.384;2023-04-22T15:54:41;6.77;;;3.17;;
6424;SDS011;12193;42.642;23.384;2023-04-22T15:57:11;3.80;;;2.77;;
6424;SDS011;12193;42.642;23.384;2023-04-22T15:59:40;6.87;;;3.00;;
6424;SDS011;12193;42.642;23.384;2023-04-22T16:02:10;4.53;;;2.43;;
6424;SDS011;12193;42.642;23.384;2023-04-22T16:04:39;6.13;;;2.97;;
6424;SDS011;12193;42.642;23.384;2023-04-22T16:07:09;3.00;;;2.60;;
6424;SDS011;12193;42.642;23.384;2023-04-22T16:09:40;4.57;;;2.30;;
6424;SDS011;12193;42.642;23.384;2023-04-22T16:12:10;5.23;;;2.57;;
6424;SDS011;12193;42.642;23.384;2023-04-22T16:14:40;4.40;;;2.70;;
6424;SDS011;12193;42.642;23.384;2023-04-22T16:17:09;4.13;;;2.60;;
6424;SDS011;12193;42.642;23.384;2023-04-22T16:19:38;5.07;;;2.43;;
6424;SDS011;12193;42.642;23.384;2023-04-22T16:22:08;5.13;;;2.67;;
6424;SDS011;12193;42.642;23.384;2023-04-22T16:24:37;4.57;;;2.77;;
6424;SDS011;12193;42.642;23.384;2023-04-22T16:27:09;5.33;;;3.13;;
6424;SDS011;12193;42.642;23.384;2023-04-22T16:29:41;5.50;;;3.20;;
6424;SDS011;12193;42.642;23.384;2023-04-22T16:32:10;6.13;;;3.30;;
6424;SDS011;12193;42.642;23.384;2023-04-22T16:34:39;7.33;;;3.10;;
6424;SDS011;12193;42.642;23.384;2023-04-22T16:37:09;5.83;;;3.10;;
6424;SDS011;12193;42.642;23.384;2023-04-22T16:39:38;7.07;;;3.43;;
6424;SDS011;12193;42.642;23.384;2023-04-22T16:42:10;6.53;;;3.33;;
6424;SDS011;12193;42.642;23.384;2023-04-22T16:44:40;5.67;;;3.60;;
6424;SDS011;12193;42.642;23.384;2023-04-22T16:47:09;4.20;;;3.50;;
6424;SDS011;12193;42.642;23.384;2023-04-22T16:49:38;4.27;;;3.30;;
6424;SDS011;12193;42.642;23.384;2023-04-22T16:52:08;5.43;;;3.27;;
6424;SDS011;12193;42.642;23.384;2023-04-22T16:54:37;5.57;;;3.77;;
6424;SDS011;12193;42.642;23.384;2023-04-22T16:57:07;8.40;;;4.40;;
6424;SDS011;12193;42.642;23.384;2023-04-22T16:59:39;5.77;;;3.90;;
6424;SDS011;12193;42.642;23.384;2023-04-22T17:02:09;5.23;;;3.87;;
6424;SDS011;12193;42.642;23.384;2023-04-22T17:04:38;5.20;;;4.03;;
6424;SDS011;12193;42.642;23.384;2023-04-22T17:07:07;6.27;;;4.30;;
6424;SDS011;12193;42.642;23.384;2023-04-22T17:09:37;6.13;;;4.20;;
6424;SDS011;12193;42.642;23.384;2023-04-22T17:12:06;7.27;;;3.87;;
6424;SDS011;12193;42.642;23.384;2023-04-22T17:14:38;5.60;;;3.20;;
6424;SDS011;12193;42.642;23.384;2023-04-22T17:17:08;3.70;;;3.03;;
6424;SDS011;12193;42.642;23.384;2023-04-22T17:19:37;6.40;;;3.80;;
6424;SDS011;12193;42.642;23.384;2023-04-22T17:22:07;4.57;;;3.40;;
6424;SDS011;12193;42.642;23.384;2023-04-22T17:24:36;4.57;;;3.47;;
6424;SDS011;12193;42.642;23.384;2023-04-22T17:27:06;5.37;;;3.73;;
6424;SDS011;12193;42.642;23.384;2023-04-22T17:29:42;6.33;;;3.70;;
6424;SDS011;12193;42.642;23.384;2023-04-22T17:32:11;6.30;;;3.30;;
6424;SDS011;12193;42.642;23.384;2023-04-22T17:34:41;4.90;;;2.77;;
6424;SDS011;12193;42.642;23.384;2023-04-22T17:37:10;6.93;;;3.23;;
6424;SDS011;12193;42.642;23.384;2023-04-22T17:39:39;5.10;;;3.53;;
6424;SDS011;12193;42.642;23.384;2023-04-22T17:42:09;5.07;;;3.70;;
6424;SDS011;12193;42.642;23.384;2023-04-22T17:44:39;4.40;;;3.57;;
6424;SDS011;12193;42.642;23.384;2023-04-22T17:47:11;4.53;;;3.63;;
6424;SDS011;12193;42.642;23.384;2023-04-22T17:49:41;5.13;;;3.73;;
6424;SDS011;12193;42.642;23.384;2023-04-22T17:52:10;6.57;;;3.43;;
6424;SDS011;12193;42.642;23.384;2023-04-22T17:54:40;5.37;;;4.03;;